Time;durP1;ratioP1;P1;durP2;ratioP2;P2;SDS_P1;SDS_P2;PMS_P1;PMS_P2;Temp;Humidity;BMP_temperature;BMP_pressure;BME280_temperature;BME280_humidity;BME280_pressure;Samples;Min_cycle;Max_cycle;Signal;HPM_P1;HPM_P2
2022/01/06 00:01:55;;;;;;;14.90;5.40;;;1.00;99.90;;;;;;6212497;23;20033;-86
2022/01/06 00:04:42;;;;;;;16.02;5.55;;;1.10;99.90;;;;;;6215783;23;20028;-85
2022/01/06 00:07:32;;;;;;;16.77;5.03;;;1.00;99.90;;;;;;6214210;23;20028;-86
2022/01/06 00:10:20;;;;;;;28.65;5.72;;;1.00;99.90;;;;;;6211734;23;20036;-85
2022/01/06 00:13:13;;;;;;;13.70;5.10;;;0.90;99.90;;;;;;6214352;23;20120;-85
2022/01/06 00:16:05;;;;;;;15.10;5.47;;;0.90;99.90;;;;;;6212540;23;20026;-86
2022/01/06 00:25:01;;;;;;;20.65;5.53;;;0.80;99.90;;;;;;6211795;23;20020;-86
2022/01/06 00:27:48;;;;;;;14.65;5.82;;;0.80;99.90;;;;;;6192896;23;20024;-85
2022/01/06 00:30:37;;;;;;;16.63;5.90;;;0.70;99.90;;;;;;6213971;23;20158;-85
2022/01/06 00:33:27;;;;;;;19.25;5.72;;;0.70;99.90;;;;;;6213727;23;20031;-84
2022/01/06 00:36:15;;;;;;;11.43;5.13;;;0.70;99.90;;;;;;6213528;23;20090;-84
2022/01/06 00:39:05;;;;;;;19.15;5.32;;;0.80;99.90;;;;;;6191636;23;20041;-83
2022/01/06 00:41:55;;;;;;;14.77;5.88;;;0.80;99.90;;;;;;6193755;23;20028;-84
2022/01/06 00:44:42;;;;;;;13.38;4.40;;;0.80;99.90;;;;;;6192345;23;20028;-86
2022/01/06 00:47:30;;;;;;;11.93;4.72;;;0.90;99.90;;;;;;6213229;23;20028;-83
2022/01/06 00:50:17;;;;;;;19.63;5.18;;;0.90;99.90;;;;;;6215070;23;20148;-86
2022/01/06 00:53:05;;;;;;;16.52;5.18;;;1.00;99.90;;;;;;6211500;23;20385;-84
2022/01/06 00:55:52;;;;;;;10.27;4.15;;;1.00;99.90;;;;;;6214577;23;20021;-83
2022/01/06 00:58:39;;;;;;;14.07;4.40;;;1.00;99.90;;;;;;6214692;23;20035;-85
2022/01/06 01:01:30;;;;;;;12.88;4.18;;;1.00;99.90;;;;;;6211296;23;20054;-86
2022/01/06 01:04:21;;;;;;;12.68;4.78;;;1.00;99.90;;;;;;6173575;23;20036;-86
2022/01/06 01:07:12;;;;;;;11.52;4.32;;;1.00;99.90;;;;;;6213560;23;20028;-84
2022/01/06 01:10:03;;;;;;;12.88;4.47;;;1.00;99.90;;;;;;6212372;23;20039;-87
2022/01/06 01:13:02;;;;;;;12.18;3.58;;;1.10;99.90;;;;;;6193186;23;20389;-87
2022/01/06 01:16:05;;;;;;;12.77;3.80;;;1.10;99.90;;;;;;6211837;23;20108;-85
2022/01/06 01:18:55;;;;;;;9.45;3.30;;;1.10;99.90;;;;;;6196380;23;20020;-85
2022/01/06 01:21:50;;;;;;;12.25;4.93;;;1.10;99.90;;;;;;6215046;23;20032;-86
2022/01/06 01:24:54;;;;;;;15.02;3.70;;;1.10;99.90;;;;;;6212770;23;20423;-86
2022/01/06 01:27:46;;;;;;;12.18;3.53;;;1.10;99.90;;;;;;6213472;23;20449;-87
2022/01/06 01:30:52;;;;;;;13.95;4.72;;;1.10;99.90;;;;;;6214210;23;20123;-84
2022/01/06 01:33:39;;;;;;;;;;;1.10;99.90;;;;;;6211849;23;20021;-84
2022/01/06 01:36:29;;;;;;;10.80;4.47;;;1.20;99.90;;;;;;6213756;23;19924;-85
2022/01/06 01:39:27;;;;;;;11.98;4.07;;;1.20;99.90;;;;;;6190059;23;20052;-87
2022/01/06 01:42:41;;;;;;;23.83;6.20;;;1.20;99.90;;;;;;6180592;23;20025;-85
2022/01/06 01:45:33;;;;;;;12.80;4.50;;;1.20;99.90;;;;;;6162120;23;20061;-85
2022/01/06 01:48:33;;;;;;;14.63;4.80;;;1.20;99.90;;;;;;6161729;23;20092;-86
2022/01/06 01:51:21;;;;;;;9.55;3.72;;;1.20;99.90;;;;;;6162591;23;20025;-85
2022/01/06 01:54:12;;;;;;;13.90;4.55;;;1.20;99.90;;;;;;6159631;23;20032;-86
2022/01/06 01:57:06;;;;;;;9.57;3.50;;;1.20;99.90;;;;;;6161526;23;20044;-86
2022/01/06 02:00:07;;;;;;;12.63;4.05;;;1.20;99.90;;;;;;6145155;23;20448;-85
2022/01/06 02:02:55;;;;;;;10.45;4.18;;;1.20;99.90;;;;;;6141156;23;20033;-86
2022/01/06 02:05:42;;;;;;;12.95;4.18;;;1.10;99.90;;;;;;6147277;23;20028;-86
2022/01/06 02:08:31;;;;;;;10.48;4.03;;;1.10;99.90;;;;;;6211033;23;20039;-85
2022/01/06 02:11:27;;;;;;;10.43;3.92;;;1.10;99.90;;;;;;6214402;23;20043;-85
2022/01/06 02:14:20;;;;;;;12.55;3.75;;;1.10;99.90;;;;;;6190578;23;20360;-84
2022/01/06 02:17:16;;;;;;;11.23;4.07;;;1.10;99.90;;;;;;6212062;23;20032;-86
2022/01/06 02:20:07;;;;;;;17.90;4.85;;;1.10;99.90;;;;;;6194270;23;20127;-85
2022/01/06 02:22:59;;;;;;;11.15;5.60;;;1.00;99.90;;;;;;6220468;23;20317;-86
2022/01/06 02:25:48;;;;;;;14.13;5.82;;;1.00;99.90;;;;;;6203103;23;20025;-84
2022/01/06 02:28:36;;;;;;;14.60;5.30;;;1.00;99.90;;;;;;6218008;23;20155;-84
2022/01/06 02:31:24;;;;;;;10.57;4.43;;;1.00;99.90;;;;;;6216357;23;20262;-85
2022/01/06 02:34:19;;;;;;;12.95;5.03;;;1.00;99.90;;;;;;6218652;23;20028;-82
2022/01/06 02:37:11;;;;;;;10.20;4.40;;;1.10;99.90;;;;;;6198616;23;20086;-85
2022/01/06 02:39:59;;;;;;;9.95;4.47;;;1.10;99.90;;;;;;6219239;23;20111;-86
2022/01/06 02:42:51;;;;;;;14.55;5.45;;;1.10;99.90;;;;;;6222646;23;20034;-81
2022/01/06 02:45:39;;;;;;;9.82;4.70;;;1.10;99.90;;;;;;6217818;23;20020;-83
2022/01/06 02:48:27;;;;;;;12.40;4.63;;;1.10;99.90;;;;;;6195399;23;20048;-83
2022/01/06 02:51:14;;;;;;;9.15;4.75;;;1.10;99.90;;;;;;6214486;23;20039;-82
2022/01/06 02:54:02;;;;;;;10.07;4.95;;;1.20;99.90;;;;;;6192268;23;20096;-84
2022/01/06 02:56:52;;;;;;;14.25;4.32;;;1.10;99.90;;;;;;6212650;23;20420;-86
2022/01/06 02:59:41;;;;;;;11.95;4.97;;;1.10;99.90;;;;;;6171021;23;20377;-85
2022/01/06 03:02:29;;;;;;;13.90;4.25;;;1.20;99.90;;;;;;6189880;23;20029;-84
2022/01/06 03:05:20;;;;;;;11.57;4.40;;;1.10;99.90;;;;;;6213368;23;20024;-86
2022/01/06 03:08:08;;;;;;;9.15;4.43;;;1.10;99.90;;;;;;6214989;23;20025;-84
2022/01/06 03:10:57;;;;;;;9.27;4.25;;;1.10;99.90;;;;;;6212625;23;20035;-86
2022/01/06 03:13:45;;;;;;;12.70;4.72;;;1.10;99.90;;;;;;6189799;23;20052;-87
2022/01/06 03:16:32;;;;;;;10.68;4.32;;;1.10;99.90;;;;;;6213353;23;20020;-82
2022/01/06 03:19:21;;;;;;;12.52;4.55;;;1.10;99.90;;;;;;6171508;23;20059;-85
2022/01/06 03:22:08;;;;;;;13.65;4.40;;;1.10;99.90;;;;;;6171580;23;20043;-85
2022/01/06 03:24:56;;;;;;;11.30;4.25;;;1.10;99.90;;;;;;6216036;23;20103;-84
2022/01/06 03:27:47;;;;;;;13.75;4.80;;;1.00;99.90;;;;;;6213701;23;20028;-85
2022/01/06 03:30:34;;;;;;;12.48;4.68;;;1.10;99.90;;;;;;6213795;23;20376;-85
2022/01/06 03:33:30;;;;;;;9.30;4.20;;;1.10;99.90;;;;;;6218235;22;20021;-85
2022/01/06 03:36:18;;;;;;;8.75;4.40;;;1.10;99.90;;;;;;6193302;23;20624;-84
2022/01/06 03:39:10;;;;;;;14.95;4.13;;;1.00;99.90;;;;;;6215720;23;20033;-85
2022/01/06 03:42:01;;;;;;;11.55;3.65;;;1.10;99.90;;;;;;6216449;23;20025;-85
2022/01/06 03:44:50;;;;;;;10.70;4.63;;;1.10;99.90;;;;;;6194846;23;20029;-85
2022/01/06 03:47:40;;;;;;;13.32;4.78;;;1.10;99.90;;;;;;6195062;23;20021;-85
2022/01/06 03:50:28;;;;;;;11.85;4.55;;;1.10;99.90;;;;;;6203307;23;20108;-84
2022/01/06 03:53:16;;;;;;;13.57;4.40;;;1.10;99.90;;;;;;6221111;23;20039;-85
2022/01/06 03:56:03;;;;;;;9.82;4.75;;;1.10;99.90;;;;;;6194542;23;20044;-84
2022/01/06 03:58:51;;;;;;;12.32;4.68;;;1.10;99.90;;;;;;6193343;23;20028;-84
2022/01/06 04:01:39;;;;;;;11.77;5.63;;;1.00;99.90;;;;;;6216146;23;20024;-84
2022/01/06 04:04:26;;;;;;;10.25;4.97;;;1.00;99.90;;;;;;6195231;23;20056;-83
2022/01/06 04:07:14;;;;;;;12.45;5.38;;;0.90;99.90;;;;;;6219882;23;20025;-85
2022/01/06 04:10:04;;;;;;;12.55;5.38;;;0.90;99.90;;;;;;6175844;23;20100;-85
2022/01/06 04:12:54;;;;;;;11.02;5.00;;;0.90;99.90;;;;;;6217937;23;20060;-85
2022/01/06 04:15:41;;;;;;;17.65;5.55;;;0.90;99.90;;;;;;6212711;23;20031;-84
2022/01/06 04:18:29;;;;;;;14.10;6.05;;;0.90;99.90;;;;;;6194473;23;20101;-84
2022/01/06 04:21:16;;;;;;;14.20;5.78;;;0.90;99.90;;;;;;6213625;23;20048;-85
2022/01/06 04:24:04;;;;;;;18.15;6.00;;;0.90;99.90;;;;;;6192315;23;20028;-84
2022/01/06 04:26:52;;;;;;;12.10;5.70;;;0.90;99.90;;;;;;6213474;23;20025;-85
2022/01/06 04:29:41;;;;;;;13.00;5.45;;;0.90;99.90;;;;;;6192985;23;20025;-85
2022/01/06 04:32:28;;;;;;;11.35;5.30;;;0.90;99.90;;;;;;6193985;23;20025;-85
2022/01/06 04:35:16;;;;;;;11.65;5.65;;;0.90;99.90;;;;;;6172851;23;20033;-85
2022/01/06 04:38:03;;;;;;;11.70;5.65;;;0.80;99.90;;;;;;6215295;23;20027;-84
2022/01/06 04:40:50;;;;;;;12.05;6.25;;;0.90;99.90;;;;;;6191513;23;20028;-84
2022/01/06 04:43:38;;;;;;;13.70;6.63;;;0.80;99.90;;;;;;6172655;23;20086;-84
2022/01/06 04:46:26;;;;;;;16.35;6.38;;;0.80;99.90;;;;;;6171652;23;20502;-84
2022/01/06 04:49:14;;;;;;;10.48;6.75;;;0.80;99.90;;;;;;6192998;23;20044;-85
2022/01/06 04:52:03;;;;;;;14.50;6.63;;;0.80;99.90;;;;;;6173020;23;20028;-85
2022/01/06 04:54:52;;;;;;;17.73;7.43;;;0.80;99.90;;;;;;6172713;23;20032;-84
2022/01/06 04:57:42;;;;;;;14.73;7.28;;;0.80;99.90;;;;;;6194382;23;20044;-84
2022/01/06 05:00:30;;;;;;;13.18;7.15;;;0.80;99.90;;;;;;6171947;23;20032;-85
2022/01/06 05:03:17;;;;;;;14.57;7.82;;;0.80;99.90;;;;;;6193178;23;20024;-86
2022/01/06 05:06:04;;;;;;;16.45;7.57;;;0.80;99.90;;;;;;6193061;23;20024;-83
2022/01/06 05:08:52;;;;;;;15.35;7.78;;;0.90;99.90;;;;;;6193355;23;20036;-86
2022/01/06 05:11:40;;;;;;;15.18;7.53;;;0.90;99.90;;;;;;6191665;23;20035;-84
2022/01/06 05:14:27;;;;;;;12.75;6.97;;;0.90;99.90;;;;;;6172514;23;20040;-84
2022/01/06 05:17:15;;;;;;;14.48;7.50;;;0.90;99.90;;;;;;6192856;23;20032;-84
2022/01/06 05:20:07;;;;;;;16.83;7.70;;;0.90;99.90;;;;;;6150975;23;20040;-85
2022/01/06 05:23:03;;;;;;;12.82;7.28;;;0.90;99.90;;;;;;6192345;23;20032;-85
2022/01/06 05:25:50;;;;;;;9.85;7.15;;;0.90;99.90;;;;;;6193010;23;20083;-84
2022/01/06 05:28:41;;;;;;;10.07;7.13;;;0.90;99.90;;;;;;6193276;23;20130;-84
2022/01/06 05:31:29;;;;;;;14.30;8.27;;;0.90;99.90;;;;;;6191980;23;20391;-83
2022/01/06 05:34:16;;;;;;;12.63;7.45;;;0.80;99.90;;;;;;6152787;23;20420;-85
2022/01/06 05:37:04;;;;;;;16.90;7.63;;;0.80;99.90;;;;;;6191911;23;20024;-86
2022/01/06 05:39:52;;;;;;;12.35;7.72;;;0.80;99.90;;;;;;6161719;23;20413;-84
2022/01/06 05:42:42;;;;;;;10.45;6.93;;;0.80;99.90;;;;;;6161852;23;20029;-85
2022/01/06 05:45:30;;;;;;;13.82;8.32;;;0.80;99.90;;;;;;6160964;23;20029;-85
2022/01/06 05:48:18;;;;;;;12.10;6.78;;;0.80;99.90;;;;;;6161984;23;20028;-82
2022/01/06 05:51:05;;;;;;;10.35;6.63;;;0.80;99.90;;;;;;6161674;23;20052;-86
2022/01/06 05:53:53;;;;;;;15.15;7.78;;;0.80;99.90;;;;;;6113059;23;20058;-86
2022/01/06 05:56:41;;;;;;;8.55;6.30;;;0.80;99.90;;;;;;6161038;23;20054;-83
2022/01/06 05:59:31;;;;;;;11.93;8.00;;;0.80;99.90;;;;;;6162694;23;20040;-85
2022/01/06 06:02:19;;;;;;;13.40;6.53;;;0.80;99.90;;;;;;6163620;23;20036;-87
2022/01/06 06:05:06;;;;;;;12.00;7.03;;;0.70;99.90;;;;;;6185038;23;20037;-83
2022/01/06 06:07:54;;;;;;;8.68;6.03;;;0.70;99.90;;;;;;6181826;23;20033;-86
2022/01/06 06:10:43;;;;;;;8.98;6.25;;;0.60;99.90;;;;;;6143937;23;20044;-87
2022/01/06 06:13:30;;;;;;;11.13;6.25;;;0.50;99.90;;;;;;6183226;23;20478;-85
2022/01/06 06:16:18;;;;;;;13.27;7.30;;;0.60;99.90;;;;;;6160893;23;20080;-85
2022/01/06 06:19:09;;;;;;;11.13;6.88;;;0.50;99.90;;;;;;6183501;23;20108;-84
2022/01/06 06:21:56;;;;;;;13.57;6.80;;;0.50;99.90;;;;;;6141331;23;20035;-85
2022/01/06 06:24:46;;;;;;;12.57;7.55;;;0.50;99.90;;;;;;6132990;23;20029;-84
2022/01/06 06:27:34;;;;;;;16.63;8.95;;;0.50;99.90;;;;;;6141959;23;20443;-85
2022/01/06 06:30:22;;;;;;;11.95;8.35;;;0.50;99.90;;;;;;6121905;23;20029;-85
2022/01/06 06:33:12;;;;;;;14.90;9.15;;;0.50;99.90;;;;;;6161167;23;20032;-86
2022/01/06 06:36:02;;;;;;;14.45;9.90;;;0.50;99.90;;;;;;6141664;23;20048;-86
2022/01/06 06:38:50;;;;;;;15.68;10.85;;;0.50;99.90;;;;;;6185067;23;20031;-83
2022/01/06 06:41:38;;;;;;;17.60;10.10;;;0.50;99.90;;;;;;6172552;23;20036;-84
2022/01/06 06:44:25;;;;;;;14.90;10.00;;;0.50;99.90;;;;;;6171096;23;20020;-84
2022/01/06 06:47:14;;;;;;;18.55;9.80;;;0.50;99.90;;;;;;6150751;23;20040;-85
2022/01/06 06:50:04;;;;;;;15.88;10.15;;;0.50;99.90;;;;;;6192721;23;20032;-83
2022/01/06 06:52:54;;;;;;;15.20;10.50;;;0.50;99.90;;;;;;6213405;23;20048;-85
2022/01/06 06:55:42;;;;;;;12.68;8.98;;;0.50;99.90;;;;;;6213989;23;20028;-85
2022/01/06 06:58:30;;;;;;;17.30;9.60;;;0.60;99.90;;;;;;6212055;23;20458;-85
2022/01/06 07:01:20;;;;;;;13.25;9.02;;;0.60;99.90;;;;;;6193542;23;20040;-86
2022/01/06 07:04:09;;;;;;;12.65;9.43;;;0.60;99.90;;;;;;6193473;23;20055;-84
2022/01/06 07:24:13;;;;;;;8.80;7.10;;;0.60;99.90;;;;;;6211448;23;20008;-84
2022/01/06 07:32:19;;;;;;;13.02;8.98;;;0.70;99.90;;;;;;6213447;23;20009;-84
2022/01/06 07:35:32;;;;;;;13.10;8.00;;;0.80;99.90;;;;;;6194053;23;20082;-83
2022/01/06 07:38:23;;;;;;;12.38;8.00;;;0.80;99.90;;;;;;6191982;23;20473;-84
2022/01/06 07:41:26;;;;;;;14.32;6.90;;;0.90;99.90;;;;;;6175063;23;20028;-82
2022/01/06 07:44:14;;;;;;;10.25;7.47;;;0.90;99.90;;;;;;6172655;23;20029;-82
2022/01/06 07:47:12;;;;;;;12.90;6.43;;;0.90;99.90;;;;;;6170067;23;20560;-82
2022/01/06 07:50:22;;;;;;;10.27;7.03;;;0.90;99.90;;;;;;6194430;23;20031;-81
2022/01/06 07:53:12;;;;;;;9.32;6.38;;;1.00;99.90;;;;;;6212779;23;20083;-81
2022/01/06 07:55:59;;;;;;;9.65;6.65;;;1.00;99.90;;;;;;6190844;23;20025;-80
2022/01/06 07:58:50;;;;;;;10.00;5.95;;;1.00;99.90;;;;;;6213686;23;20121;-83
2022/01/06 08:01:39;;;;;;;9.02;6.88;;;1.00;99.90;;;;;;6193299;23;20032;-81
2022/01/06 08:04:28;;;;;;;16.38;5.97;;;1.10;99.90;;;;;;6151864;23;20036;-81
2022/01/06 08:07:16;;;;;;;12.82;6.68;;;1.00;99.90;;;;;;6193051;23;20021;-82
2022/01/06 08:10:04;;;;;;;11.73;6.40;;;1.20;99.90;;;;;;6185322;23;20115;-83
2022/01/06 08:12:52;;;;;;;11.35;6.07;;;1.20;99.90;;;;;;6213187;23;20436;-81
2022/01/06 08:15:39;;;;;;;12.68;6.65;;;1.30;99.90;;;;;;6162260;23;20095;-81
2022/01/06 08:18:27;;;;;;;10.15;6.70;;;1.40;99.90;;;;;;6162398;23;20025;-82
2022/01/06 08:21:14;;;;;;;13.20;7.00;;;1.40;99.90;;;;;;6163716;23;20044;-82
2022/01/06 08:24:01;;;;;;;11.10;6.47;;;1.40;99.90;;;;;;6162654;23;20029;-80
2022/01/06 08:26:48;;;;;;;13.68;7.20;;;1.40;99.90;;;;;;6158608;23;20025;-80
2022/01/06 08:29:38;;;;;;;13.65;7.43;;;1.30;99.90;;;;;;6161583;23;20028;-81
2022/01/06 08:32:26;;;;;;;11.50;6.82;;;1.20;99.90;;;;;;6161387;23;20032;-83
2022/01/06 08:35:15;;;;;;;10.10;6.10;;;1.30;99.90;;;;;;6163011;23;20021;-84
2022/01/06 08:38:05;;;;;;;14.90;7.30;;;1.30;99.90;;;;;;6180544;23;20051;-81
2022/01/06 08:40:52;;;;;;;14.32;6.97;;;1.20;99.90;;;;;;6179920;23;20025;-81
2022/01/06 08:43:39;;;;;;;16.95;7.55;;;1.40;99.90;;;;;;6161864;23;20036;-82
2022/01/06 08:46:27;;;;;;;13.85;6.95;;;1.60;99.90;;;;;;6141845;23;20032;-81
2022/01/06 08:49:16;;;;;;;14.75;6.88;;;1.90;99.90;;;;;;6162507;23;20021;-82
2022/01/06 08:52:06;;;;;;;11.93;6.05;;;2.20;99.90;;;;;;6160397;23;20036;-81
2022/01/06 08:54:54;;;;;;;8.85;5.32;;;2.60;99.90;;;;;;6166558;23;20025;-80
2022/01/06 08:57:41;;;;;;;8.90;5.50;;;3.00;99.90;;;;;;6153854;23;20021;-80
2022/01/06 09:00:35;;;;;;;11.32;5.50;;;3.20;99.90;;;;;;6184235;23;20325;-83
2022/01/06 09:03:41;;;;;;;8.57;5.22;;;3.10;99.90;;;;;;6141885;23;20029;-81
2022/01/06 09:06:32;;;;;;;10.95;4.90;;;3.10;99.90;;;;;;6163846;23;20028;-79
2022/01/06 09:09:23;;;;;;;9.65;4.80;;;3.00;99.90;;;;;;6142721;23;20056;-83
2022/01/06 09:12:17;;;;;;;13.05;5.60;;;2.80;99.90;;;;;;6163252;23;20131;-81
2022/01/06 09:15:30;;;;;;;9.15;5.55;;;2.70;99.90;;;;;;6176143;23;20124;-82
2022/01/06 09:18:19;;;;;;;9.98;4.65;;;2.80;99.90;;;;;;6211028;23;20024;-82
2022/01/06 09:21:08;;;;;;;7.97;4.80;;;3.20;99.90;;;;;;6192064;23;20035;-80
2022/01/06 09:23:59;;;;;;;9.88;4.18;;;3.70;99.90;;;;;;6212398;23;20123;-81
2022/01/06 09:26:48;;;;;;;7.53;3.90;;;4.00;99.90;;;;;;6215222;22;20028;-82
2022/01/06 09:29:37;;;;;;;11.05;4.43;;;4.30;99.90;;;;;;6189790;23;20028;-82
2022/01/06 09:32:28;;;;;;;11.55;4.05;;;4.70;99.90;;;;;;6191111;23;20420;-81
2022/01/06 09:35:35;;;;;;;14.32;4.38;;;5.40;99.90;;;;;;6211764;23;20087;-81
2022/01/06 09:38:24;;;;;;;13.85;3.28;;;5.70;99.90;;;;;;6211640;23;20028;-83
2022/01/06 09:41:12;;;;;;;7.25;2.30;;;5.30;99.90;;;;;;6210638;23;20056;-82
2022/01/06 09:44:04;;;;;;;6.00;2.13;;;4.80;99.90;;;;;;6190170;23;20029;-83
2022/01/06 09:47:11;;;;;;;11.70;2.50;;;4.20;99.90;;;;;;6228609;23;20039;-81
2022/01/06 09:50:19;;;;;;;10.70;3.10;;;3.70;99.90;;;;;;6193650;23;20028;-81
2022/01/06 09:53:12;;;;;;;11.98;3.17;;;3.40;99.90;;;;;;6211005;23;20036;-80
2022/01/06 09:56:00;;;;;;;11.80;4.07;;;3.20;99.90;;;;;;6210787;23;20033;-80
2022/01/06 09:58:49;;;;;;;15.93;5.07;;;3.20;99.90;;;;;;6213229;23;20281;-81
2022/01/06 10:01:38;;;;;;;16.58;4.85;;;3.20;99.90;;;;;;6169680;23;20035;-80
2022/01/06 10:04:28;;;;;;;15.25;4.30;;;4.10;99.90;;;;;;6211594;23;20463;-82
2022/01/06 10:07:16;;;;;;;10.23;3.30;;;5.90;99.90;;;;;;6210053;23;20028;-81
2022/01/06 10:10:14;;;;;;;18.27;3.80;;;7.40;99.90;;;;;;6215446;22;20531;-81
2022/01/06 10:13:07;;;;;;;9.95;3.35;;;8.90;99.90;;;;;;6212501;23;20024;-82
2022/01/06 10:15:54;;;;;;;6.90;2.90;;;10.10;99.90;;;;;;6211688;23;20028;-82
2022/01/06 10:18:57;;;;;;;7.30;2.67;;;11.60;94.00;;;;;;6189069;23;20052;-82
2022/01/06 10:21:56;;;;;;;6.82;2.63;;;11.40;84.70;;;;;;6211596;23;20025;-83
2022/01/06 10:24:46;;;;;;;7.07;3.30;;;10.70;84.30;;;;;;6208992;23;20047;-83
2022/01/06 10:27:33;;;;;;;8.50;2.85;;;10.30;88.10;;;;;;6214849;22;20032;-85
2022/01/06 10:30:21;;;;;;;8.65;3.03;;;9.90;90.00;;;;;;6210195;23;20040;-86
2022/01/06 10:33:08;;;;;;;5.85;2.65;;;9.20;90.90;;;;;;6210912;23;20060;-84
2022/01/06 10:36:07;;;;;;;8.15;3.15;;;8.90;92.00;;;;;;6212425;23;20021;-83
2022/01/06 10:38:59;;;;;;;10.52;3.10;;;8.30;93.20;;;;;;6212843;23;20323;-82
2022/01/06 10:41:46;;;;;;;10.93;3.53;;;7.70;94.70;;;;;;6211122;23;20112;-83
2022/01/06 10:44:45;;;;;;;8.88;3.92;;;7.30;97.20;;;;;;6213684;23;20032;-83
2022/01/06 10:47:35;;;;;;;15.82;4.85;;;7.00;98.60;;;;;;6192473;23;20024;-82
2022/01/06 10:50:34;;;;;;;13.10;3.85;;;7.00;99.90;;;;;;6210510;23;20032;-81
2022/01/06 10:53:21;;;;;;;11.70;3.45;;;6.90;99.90;;;;;;6212614;23;20044;-87
2022/01/06 10:56:17;;;;;;;9.73;3.83;;;6.50;99.90;;;;;;6209046;23;20024;-81
2022/01/06 10:59:05;;;;;;;10.38;3.30;;;6.00;99.90;;;;;;6214055;23;20029;-83
2022/01/06 11:01:54;;;;;;;10.65;3.13;;;5.50;99.90;;;;;;6213872;23;20079;-83
2022/01/06 11:04:44;;;;;;;11.70;3.00;;;5.00;99.90;;;;;;6213338;23;20040;-83
2022/01/06 11:07:31;;;;;;;13.20;4.07;;;4.60;99.90;;;;;;6215098;23;20024;-83
2022/01/06 11:10:21;;;;;;;8.65;3.38;;;4.20;99.90;;;;;;6191791;23;20028;-83
2022/01/06 11:13:12;;;;;;;14.13;4.07;;;4.00;99.90;;;;;;6194193;23;20059;-84
2022/01/06 11:16:00;;;;;;;11.27;3.65;;;3.80;99.90;;;;;;6214096;23;20079;-84
2022/01/06 11:18:51;;;;;;;12.68;3.95;;;3.80;99.90;;;;;;6213348;23;20016;-84
2022/01/06 11:21:44;;;;;;;12.80;3.80;;;3.70;99.90;;;;;;6213698;23;20086;-84
2022/01/06 11:24:33;;;;;;;14.52;3.40;;;3.80;99.90;;;;;;6212553;23;20028;-84
2022/01/06 11:27:35;;;;;;;11.68;3.47;;;3.80;99.90;;;;;;6191957;23;20099;-85
2022/01/06 11:30:23;;;;;;;11.68;3.60;;;3.70;99.90;;;;;;6213611;23;20033;-85
2022/01/06 11:33:11;;;;;;;13.85;3.20;;;3.70;99.90;;;;;;6213992;23;20029;-85
2022/01/06 11:36:02;;;;;;;15.27;3.30;;;3.60;99.90;;;;;;6213417;23;20028;-83
2022/01/06 12:08:19;;;;;;;8.82;3.25;;;4.10;99.90;;;;;;6179918;23;20016;-82
2022/01/06 12:11:20;;;;;;;8.60;2.80;;;4.20;99.90;;;;;;6179666;23;20036;-82
2022/01/06 12:14:08;;;;;;;10.30;3.13;;;4.20;99.90;;;;;;6199680;23;20029;-84
2022/01/06 12:17:09;;;;;;;18.25;3.50;;;4.10;99.90;;;;;;6211060;23;20091;-83
2022/01/06 12:20:49;;;;;;;13.70;3.63;;;3.90;99.90;;;;;;6208043;23;20024;-82
2022/01/06 12:24:04;;;;;;;14.25;3.55;;;3.60;99.90;;;;;;6212296;23;20036;-82
2022/01/06 12:52:08;;;;;;;12.68;4.43;;;4.30;99.90;;;;;;6014945;23;20022;-82
2022/01/06 12:59:21;;;;;;;15.55;4.20;;;4.90;99.90;;;;;;6065976;23;20013;-82
2022/01/06 13:02:13;;;;;;;11.27;2.95;;;4.70;99.90;;;;;;6093118;23;20033;-83
2022/01/06 13:05:03;;;;;;;16.02;5.35;;;4.60;99.90;;;;;;6153331;23;20063;-82
2022/01/06 14:36:35;;;;;;;16.50;4.50;;;3.30;99.90;;;;;;5839908;24;20037;-82
2022/01/06 15:14:03;;;;;;;13.18;3.80;;;3.00;99.90;;;;;;6132247;23;20029;-85
2022/01/06 15:42:42;;;;;;;35.28;11.25;;;1.10;99.90;;;;;;6061924;23;20050;-81
2022/01/06 15:58:59;;;;;;;18.70;6.85;;;0.50;99.90;;;;;;5978990;24;20037;-83
2022/01/06 16:15:49;;;;;;;65.32;30.10;;;-0.10;99.90;;;;;;5949787;24;20008;-82
2022/01/06 16:19:05;;;;;;;74.72;30.23;;;-0.30;99.90;;;;;;5950253;24;20040;-82
2022/01/06 16:22:08;;;;;;;61.72;24.58;;;-0.60;99.90;;;;;;5988501;23;20043;-82
2022/01/06 16:24:55;;;;;;;99.30;47.70;;;-0.70;99.90;;;;;;5988893;23;20035;-82
2022/01/06 16:27:43;;;;;;;38.72;15.55;;;-0.80;99.90;;;;;;5986737;23;20036;-81
2022/01/06 16:43:34;;;;;;;36.88;14.02;;;-0.90;99.90;;;;;;6166125;23;20079;-83
2022/01/06 16:46:31;;;;;;;27.38;12.13;;;-1.10;99.90;;;;;;6162640;23;20071;-83
2022/01/06 16:49:22;;;;;;;32.00;12.40;;;-1.10;99.90;;;;;;6160663;23;20025;-82
2022/01/06 16:52:13;;;;;;;38.38;13.00;;;-1.10;99.90;;;;;;6163664;23;20033;-83
2022/01/06 16:55:47;;;;;;;35.00;13.82;;;-1.10;99.90;;;;;;6119972;23;20025;-84
2022/01/06 16:58:36;;;;;;;35.25;14.63;;;-1.20;99.90;;;;;;6181996;23;20064;-80
2022/01/06 17:01:23;;;;;;;46.55;13.48;;;-1.30;99.90;;;;;;6183114;23;20029;-79
2022/01/06 17:04:11;;;;;;;28.95;12.23;;;-1.40;99.90;;;;;;6141446;23;20025;-82
2022/01/06 17:06:58;;;;;;;29.85;11.23;;;-1.50;99.90;;;;;;6142184;23;20097;-80
2022/01/06 17:09:48;;;;;;;43.17;12.90;;;-1.50;99.90;;;;;;6162595;23;20040;-82
2022/01/06 17:12:39;;;;;;;34.53;15.50;;;-1.50;99.90;;;;;;6161530;23;20024;-82
2022/01/06 17:15:26;;;;;;;47.63;15.77;;;-1.50;99.90;;;;;;6162728;23;20025;-83
2022/01/06 17:18:17;;;;;;;46.65;18.13;;;-1.50;99.90;;;;;;6164233;23;20060;-82
2022/01/06 17:21:04;;;;;;;51.53;19.80;;;-1.50;99.90;;;;;;6162530;23;20025;-82
2022/01/06 17:24:00;;;;;;;43.13;17.60;;;-1.30;99.90;;;;;;6164169;23;20389;-84
2022/01/06 17:26:48;;;;;;;56.60;22.42;;;-1.40;99.90;;;;;;6163787;23;20029;-82
2022/01/06 17:29:36;;;;;;;108.32;44.42;;;-1.50;99.90;;;;;;6163771;23;20032;-84
2022/01/06 17:32:34;;;;;;;49.70;19.05;;;-1.60;99.90;;;;;;6153480;23;20040;-80
2022/01/06 17:35:21;;;;;;;40.78;17.25;;;-1.70;99.90;;;;;;6186549;23;20032;-83
2022/01/06 17:38:09;;;;;;;38.58;14.35;;;-1.80;99.90;;;;;;6139891;23;20060;-83
2022/01/06 17:40:56;;;;;;;27.88;8.50;;;-1.70;99.90;;;;;;6161311;23;20021;-83
2022/01/06 17:43:43;;;;;;;26.60;8.68;;;-1.80;99.90;;;;;;6161808;23;20433;-82
2022/01/06 17:46:31;;;;;;;41.03;13.07;;;-1.80;99.90;;;;;;6163546;23;20029;-83
2022/01/06 17:49:18;;;;;;;38.10;13.30;;;-1.80;99.90;;;;;;6162660;23;20322;-84
2022/01/06 17:52:07;;;;;;;41.53;13.70;;;-1.80;99.90;;;;;;6143116;23;20039;-82
2022/01/06 17:54:54;;;;;;;32.22;13.45;;;-1.80;99.90;;;;;;6164859;23;20052;-83
2022/01/06 17:57:42;;;;;;;35.25;14.98;;;-1.80;99.90;;;;;;6164109;23;20029;-83
2022/01/06 18:00:51;;;;;;;43.70;14.88;;;-1.80;99.90;;;;;;6187725;23;20084;-82
2022/01/06 18:03:38;;;;;;;35.42;13.48;;;-1.90;99.90;;;;;;6161949;23;20079;-84
2022/01/06 18:06:30;;;;;;;36.92;15.70;;;-2.00;99.90;;;;;;6164253;23;20029;-84
2022/01/06 18:12:09;;;;;;;63.75;30.98;;;-1.90;99.90;;;;;;6192569;23;20020;-84
2022/01/06 18:14:56;;;;;;;77.30;33.78;;;-1.90;99.90;;;;;;6191344;23;20431;-82
2022/01/06 18:18:05;;;;;;;83.63;36.42;;;-1.80;99.90;;;;;;6170098;23;20047;-80
2022/01/06 18:21:13;;;;;;;77.00;36.03;;;-1.90;99.90;;;;;;6191268;23;20029;-83
2022/01/06 18:24:03;;;;;;;95.18;39.83;;;-1.80;99.90;;;;;;6212574;23;20436;-82
2022/01/06 18:26:54;;;;;;;87.32;39.83;;;-1.90;99.90;;;;;;6232617;23;20024;-84
2022/01/06 18:29:43;;;;;;;83.80;39.13;;;-1.90;99.90;;;;;;6210888;23;20020;-83
2022/01/06 18:32:33;;;;;;;96.13;40.42;;;-1.90;99.90;;;;;;6212403;23;20098;-82
2022/01/06 18:35:22;;;;;;;76.10;36.78;;;-1.80;99.90;;;;;;6210993;23;20028;-83
2022/01/06 18:38:26;;;;;;;75.55;35.10;;;-1.70;99.90;;;;;;6211040;23;20029;-83
2022/01/06 18:41:20;;;;;;;84.10;36.22;;;-1.70;99.90;;;;;;6191773;23;20032;-82
2022/01/06 18:44:10;;;;;;;82.13;34.95;;;-1.80;99.90;;;;;;6213585;23;20086;-81
2022/01/06 18:47:01;;;;;;;105.20;40.83;;;-1.80;99.90;;;;;;6190463;23;20024;-82
2022/01/06 18:49:54;;;;;;;122.18;49.58;;;-2.00;99.90;;;;;;6212631;23;20503;-82
2022/01/06 18:52:44;;;;;;;109.28;46.72;;;-2.00;99.90;;;;;;6233195;23;20039;-81
2022/01/06 18:55:31;;;;;;;87.50;41.63;;;-1.90;99.90;;;;;;6190317;23;20040;-82
2022/01/06 18:58:19;;;;;;;70.53;33.92;;;-1.90;99.90;;;;;;6212933;23;20029;-85
2022/01/06 19:01:10;;;;;;;91.15;42.17;;;-1.90;99.90;;;;;;6190280;23;20024;-84
2022/01/06 19:04:00;;;;;;;75.30;31.98;;;-2.00;99.90;;;;;;6192050;23;20028;-85
2022/01/06 19:06:50;;;;;;;64.72;28.55;;;-1.80;99.90;;;;;;6212507;23;20031;-84
2022/01/06 19:13:23;;;;;;;57.75;24.85;;;-1.70;99.90;;;;;;6062699;23;20018;-83
2022/01/06 19:16:16;;;;;;;177.48;66.20;;;-1.70;99.90;;;;;;6045674;23;20023;-87
2022/01/06 19:19:04;;;;;;;54.88;24.33;;;-1.70;99.90;;;;;;6065311;23;20469;-87
2022/01/06 19:21:54;;;;;;;57.85;27.48;;;-1.60;99.90;;;;;;6047058;23;20129;-85
2022/01/06 19:24:44;;;;;;;49.72;21.83;;;-1.60;99.90;;;;;;6066470;23;20031;-84
2022/01/06 19:27:32;;;;;;;66.53;26.83;;;-1.70;99.90;;;;;;6067307;23;20453;-86
2022/01/06 19:30:22;;;;;;;78.43;33.72;;;-1.60;99.90;;;;;;6068008;23;20109;-84